sensor_id;sensor_type;location;lat;lon;timestamp;temperature;humidity
3198;DHT22;1611;49.394;11.136;2023-02-11T00:00:22;-1.40;68.10
3198;DHT22;1611;49.394;11.136;2023-02-11T00:02:49;-1.40;68.20
3198;DHT22;1611;49.394;11.136;2023-02-11T00:05:15;-1.40;68.10
3198;DHT22;1611;49.394;11.136;2023-02-11T00:07:44;-1.40;68.10
3198;DHT22;1611;49.394;11.136;2023-02-11T00:10:10;-1.40;68.20
3198;DHT22;1611;49.394;11.136;2023-02-11T00:12:37;-1.40;68.20
3198;DHT22;1611;49.394;11.136;2023-02-11T00:15:05;-1.40;68.20
3198;DHT22;1611;49.394;11.136;2023-02-11T00:17:33;-1.40;68.10
3198;DHT22;1611;49.394;11.136;2023-02-11T00:20:00;-1.40;68.00
3198;DHT22;1611;49.394;11.136;2023-02-11T00:22:26;-1.40;68.10
3198;DHT22;1611;49.394;11.136;2023-02-11T00:24:54;-1.40;68.10
3198;DHT22;1611;49.394;11.136;2023-02-11T00:27:21;-1.50;68.50
3198;DHT22;1611;49.394;11.136;2023-02-11T00:29:48;-1.40;68.60
3198;DHT22;1611;49.394;11.136;2023-02-11T00:32:15;-1.40;68.80
3198;DHT22;1611;49.394;11.136;2023-02-11T00:34:42;-1.50;68.80
3198;DHT22;1611;49.394;11.136;2023-02-11T00:37:09;-1.50;68.60
3198;DHT22;1611;49.394;11.136;2023-02-11T00:39:36;-1.50;68.70
3198;DHT22;1611;49.394;11.136;2023-02-11T00:42:05;-1.50;68.50
3198;DHT22;1611;49.394;11.136;2023-02-11T00:44:31;-1.50;68.40
3198;DHT22;1611;49.394;11.136;2023-02-11T00:46:58;-1.50;68.40
3198;DHT22;1611;49.394;11.136;2023-02-11T00:49:25;-1.40;68.20
3198;DHT22;1611;49.394;11.136;2023-02-11T00:51:51;-1.50;68.10
3198;DHT22;1611;49.394;11.136;2023-02-11T00:54:18;-1.40;68.20
3198;DHT22;1611;49.394;11.136;2023-02-11T00:56:45;-1.50;68.30
3198;DHT22;1611;49.394;11.136;2023-02-11T00:59:13;-1.40;68.20
3198;DHT22;1611;49.394;11.136;2023-02-11T01:01:40;-1.40;68.00
3198;DHT22;1611;49.394;11.136;2023-02-11T01:04:07;-1.50;67.90
3198;DHT22;1611;49.394;11.136;2023-02-11T01:06:33;-1.40;67.80
3198;DHT22;1611;49.394;11.136;2023-02-11T01:09:00;-1.40;67.80
3198;DHT22;1611;49.394;11.136;2023-02-11T01:11:27;-1.40;67.70
3198;DHT22;1611;49.394;11.136;2023-02-11T01:13:53;-1.50;67.70
3198;DHT22;1611;49.394;11.136;2023-02-11T01:16:22;-1.40;67.50
3198;DHT22;1611;49.394;11.136;2023-02-11T01:18:48;-1.50;67.60
3198;DHT22;1611;49.394;11.136;2023-02-11T01:21:15;-1.50;67.50
3198;DHT22;1611;49.394;11.136;2023-02-11T01:23:42;-1.50;67.40
3198;DHT22;1611;49.394;11.136;2023-02-11T01:26:09;-1.50;67.50
3198;DHT22;1611;49.394;11.136;2023-02-11T01:28:35;-1.50;67.40
3198;DHT22;1611;49.394;11.136;2023-02-11T01:31:03;-1.50;67.30
3198;DHT22;1611;49.394;11.136;2023-02-11T01:33:31;-1.50;67.20
3198;DHT22;1611;49.394;11.136;2023-02-11T01:36:00;-1.50;67.60
3198;DHT22;1611;49.394;11.136;2023-02-11T01:38:27;-1.50;67.40
3198;DHT22;1611;49.394;11.136;2023-02-11T01:40:56;-1.40;67.30
3198;DHT22;1611;49.394;11.136;2023-02-11T01:43:25;-1.40;67.10
3198;DHT22;1611;49.394;11.136;2023-02-11T01:46:00;-1.40;66.80
3198;DHT22;1611;49.394;11.136;2023-02-11T01:48:31;-1.40;67.20
3198;DHT22;1611;49.394;11.136;2023-02-11T01:51:03;-1.40;67.00
3198;DHT22;1611;49.394;11.136;2023-02-11T01:53:33;-1.30;67.00
3198;DHT22;1611;49.394;11.136;2023-02-11T01:56:19;-1.30;66.90
3198;DHT22;1611;49.394;11.136;2023-02-11T01:59:10;-1.30;66.30
3198;DHT22;1611;49.394;11.136;2023-02-11T02:01:38;-1.20;65.90
3198;DHT22;1611;49.394;11.136;2023-02-11T02:04:08;-1.20;65.70
3198;DHT22;1611;49.394;11.136;2023-02-11T02:06:42;-1.30;66.20
3198;DHT22;1611;49.394;11.136;2023-02-11T02:09:15;-1.30;66.20
3198;DHT22;1611;49.394;11.136;2023-02-11T02:11:43;-1.30;66.30
3198;DHT22;1611;49.394;11.136;2023-02-11T02:14:09;-1.30;66.20
3198;DHT22;1611;49.394;11.136;2023-02-11T02:16:36;-1.30;66.20
3198;DHT22;1611;49.394;11.136;2023-02-11T02:19:23;-1.20;65.70
3198;DHT22;1611;49.394;11.136;2023-02-11T02:22:11;-1.30;65.90
3198;DHT22;1611;49.394;11.136;2023-02-11T02:25:04;-1.20;66.00
3198;DHT22;1611;49.394;11.136;2023-02-11T02:27:40;-1.30;65.90
3198;DHT22;1611;49.394;11.136;2023-02-11T02:30:43;-1.20;65.80
3198;DHT22;1611;49.394;11.136;2023-02-11T02:33:31;-1.20;65.30
3198;DHT22;1611;49.394;11.136;2023-02-11T02:36:06;-1.20;65.90
3198;DHT22;1611;49.394;11.136;2023-02-11T02:38:38;-1.20;66.20
3198;DHT22;1611;49.394;11.136;2023-02-11T02:41:07;-1.20;65.80
3198;DHT22;1611;49.394;11.136;2023-02-11T02:43:38;-1.20;66.00
3198;DHT22;1611;49.394;11.136;2023-02-11T02:46:15;-1.10;66.10
3198;DHT22;1611;49.394;11.136;2023-02-11T02:48:45;-1.10;65.60
3198;DHT22;1611;49.394;11.136;2023-02-11T02:54:33;-1.10;65.40
3198;DHT22;1611;49.394;11.136;2023-02-11T02:57:12;-1.10;65.60
3198;DHT22;1611;49.394;11.136;2023-02-11T02:59:56;-1.10;65.50
3198;DHT22;1611;49.394;11.136;2023-02-11T03:02:32;-1.00;65.10
3198;DHT22;1611;49.394;11.136;2023-02-11T03:05:05;-1.00;65.30
3198;DHT22;1611;49.394;11.136;2023-02-11T03:07:40;-1.00;65.30
3198;DHT22;1611;49.394;11.136;2023-02-11T03:10:11;-1.00;65.20
3198;DHT22;1611;49.394;11.136;2023-02-11T03:12:40;-1.00;64.80
3198;DHT22;1611;49.394;11.136;2023-02-11T03:15:09;-1.00;64.90
3198;DHT22;1611;49.394;11.136;2023-02-11T03:17:39;-1.00;65.20
3198;DHT22;1611;49.394;11.136;2023-02-11T03:20:10;-0.90;64.80
3198;DHT22;1611;49.394;11.136;2023-02-11T03:22:41;-0.90;64.50
3198;DHT22;1611;49.394;11.136;2023-02-11T03:25:10;-0.90;64.40
3198;DHT22;1611;49.394;11.136;2023-02-11T03:27:40;-0.90;64.50
3198;DHT22;1611;49.394;11.136;2023-02-11T03:30:13;-0.80;64.00
3198;DHT22;1611;49.394;11.136;2023-02-11T03:32:49;-0.70;63.90
3198;DHT22;1611;49.394;11.136;2023-02-11T03:35:21;-0.70;64.10
3198;DHT22;1611;49.394;11.136;2023-02-11T03:37:50;-0.60;63.90
3198;DHT22;1611;49.394;11.136;2023-02-11T03:40:20;-0.60;64.00
3198;DHT22;1611;49.394;11.136;2023-02-11T03:42:50;-0.50;64.10
3198;DHT22;1611;49.394;11.136;2023-02-11T03:45:21;-0.30;64.10
3198;DHT22;1611;49.394;11.136;2023-02-11T03:47:52;-0.40;64.00
3198;DHT22;1611;49.394;11.136;2023-02-11T03:50:22;-0.40;63.80
3198;DHT22;1611;49.394;11.136;2023-02-11T03:52:50;-0.30;63.40
3198;DHT22;1611;49.394;11.136;2023-02-11T03:55:19;-0.30;63.30
3198;DHT22;1611;49.394;11.136;2023-02-11T03:57:46;-0.30;64.10
3198;DHT22;1611;49.394;11.136;2023-02-11T04:00:14;-0.30;63.50
3198;DHT22;1611;49.394;11.136;2023-02-11T04:02:41;-0.30;63.30
3198;DHT22;1611;49.394;11.136;2023-02-11T04:05:12;-0.30;63.50
3198;DHT22;1611;49.394;11.136;2023-02-11T04:07:40;-0.20;63.60
3198;DHT22;1611;49.394;11.136;2023-02-11T04:10:07;-0.10;63.40
3198;DHT22;1611;49.394;11.136;2023-02-11T04:12:34;-0.10;62.70
3198;DHT22;1611;49.394;11.136;2023-02-11T04:15:01;0.00;62.60
3198;DHT22;1611;49.394;11.136;2023-02-11T04:17:28;-0.10;62.50
3198;DHT22;1611;49.394;11.136;2023-02-11T04:19:55;-0.10;62.70
3198;DHT22;1611;49.394;11.136;2023-02-11T04:22:21;-0.10;62.90
3198;DHT22;1611;49.394;11.136;2023-02-11T04:24:49;0.00;62.30
3198;DHT22;1611;49.394;11.136;2023-02-11T04:27:16;0.00;62.70
3198;DHT22;1611;49.394;11.136;2023-02-11T04:29:43;0.00;62.50
3198;DHT22;1611;49.394;11.136;2023-02-11T04:32:10;0.00;62.60
3198;DHT22;1611;49.394;11.136;2023-02-11T04:34:37;0.00;62.70
3198;DHT22;1611;49.394;11.136;2023-02-11T04:37:04;0.00;62.50
3198;DHT22;1611;49.394;11.136;2023-02-11T04:39:31;-0.10;62.30
3198;DHT22;1611;49.394;11.136;2023-02-11T04:41:59;-0.20;62.50
3198;DHT22;1611;49.394;11.136;2023-02-11T04:44:25;-0.40;62.90
3198;DHT22;1611;49.394;11.136;2023-02-11T04:46:52;-0.40;63.20
3198;DHT22;1611;49.394;11.136;2023-02-11T04:49:19;-0.50;63.80
3198;DHT22;1611;49.394;11.136;2023-02-11T04:51:46;-0.40;63.90
3198;DHT22;1611;49.394;11.136;2023-02-11T04:54:13;-0.40;63.80
3198;DHT22;1611;49.394;11.136;2023-02-11T04:56:40;-0.40;64.00
3198;DHT22;1611;49.394;11.136;2023-02-11T04:59:08;-0.40;64.00
3198;DHT22;1611;49.394;11.136;2023-02-11T05:01:35;-0.40;64.10
3198;DHT22;1611;49.394;11.136;2023-02-11T05:04:02;-0.30;64.20
3198;DHT22;1611;49.394;11.136;2023-02-11T05:06:29;-0.20;64.20
3198;DHT22;1611;49.394;11.136;2023-02-11T05:08:56;-0.20;63.90
3198;DHT22;1611;49.394;11.136;2023-02-11T05:11:24;-0.20;63.60
3198;DHT22;1611;49.394;11.136;2023-02-11T05:13:51;-0.20;64.00
3198;DHT22;1611;49.394;11.136;2023-02-11T05:16:19;-0.20;64.00
3198;DHT22;1611;49.394;11.136;2023-02-11T05:18:46;0.00;64.00
3198;DHT22;1611;49.394;11.136;2023-02-11T05:21:17;0.00;63.40
3198;DHT22;1611;49.394;11.136;2023-02-11T05:23:44;0.00;63.60
3198;DHT22;1611;49.394;11.136;2023-02-11T05:26:12;-0.10;63.60
3198;DHT22;1611;49.394;11.136;2023-02-11T05:28:39;0.00;63.50
3198;DHT22;1611;49.394;11.136;2023-02-11T05:31:07;0.00;63.70
3198;DHT22;1611;49.394;11.136;2023-02-11T05:33:35;0.10;63.80
3198;DHT22;1611;49.394;11.136;2023-02-11T05:36:05;0.10;63.50
3198;DHT22;1611;49.394;11.136;2023-02-11T05:38:33;0.20;63.20
3198;DHT22;1611;49.394;11.136;2023-02-11T05:41:00;0.30;63.30
3198;DHT22;1611;49.394;11.136;2023-02-11T05:43:27;0.20;63.40
3198;DHT22;1611;49.394;11.136;2023-02-11T05:45:54;0.20;63.30
3198;DHT22;1611;49.394;11.136;2023-02-11T05:48:21;0.20;63.60
3198;DHT22;1611;49.394;11.136;2023-02-11T05:50:49;0.20;63.30
3198;DHT22;1611;49.394;11.136;2023-02-11T05:53:16;0.10;63.50
3198;DHT22;1611;49.394;11.136;2023-02-11T05:55:43;0.10;63.90
3198;DHT22;1611;49.394;11.136;2023-02-11T05:58:10;0.00;64.40
3198;DHT22;1611;49.394;11.136;2023-02-11T06:00:37;0.10;64.90
3198;DHT22;1611;49.394;11.136;2023-02-11T06:03:04;0.10;64.70
3198;DHT22;1611;49.394;11.136;2023-02-11T06:05:31;0.10;64.90
3198;DHT22;1611;49.394;11.136;2023-02-11T06:07:59;0.20;64.50
3198;DHT22;1611;49.394;11.136;2023-02-11T06:10:26;0.20;64.40
3198;DHT22;1611;49.394;11.136;2023-02-11T06:12:53;0.30;64.50
3198;DHT22;1611;49.394;11.136;2023-02-11T06:15:19;0.20;64.80
3198;DHT22;1611;49.394;11.136;2023-02-11T06:17:46;0.30;64.70
3198;DHT22;1611;49.394;11.136;2023-02-11T06:20:13;0.30;64.60
3198;DHT22;1611;49.394;11.136;2023-02-11T06:22:40;0.40;64.40
3198;DHT22;1611;49.394;11.136;2023-02-11T06:25:08;0.50;63.80
3198;DHT22;1611;49.394;11.136;2023-02-11T06:27:35;0.50;64.00
3198;DHT22;1611;49.394;11.136;2023-02-11T06:30:03;0.50;63.90
3198;DHT22;1611;49.394;11.136;2023-02-11T06:32:29;0.40;63.70
3198;DHT22;1611;49.394;11.136;2023-02-11T06:34:56;0.50;64.00
3198;DHT22;1611;49.394;11.136;2023-02-11T06:37:23;0.50;63.80
3198;DHT22;1611;49.394;11.136;2023-02-11T06:39:50;0.50;63.40
3198;DHT22;1611;49.394;11.136;2023-02-11T06:42:18;0.50;63.50
3198;DHT22;1611;49.394;11.136;2023-02-11T06:44:44;0.40;63.90
3198;DHT22;1611;49.394;11.136;2023-02-11T06:47:11;0.30;64.40
3198;DHT22;1611;49.394;11.136;2023-02-11T06:49:38;0.30;64.50
3198;DHT22;1611;49.394;11.136;2023-02-11T06:52:05;0.20;64.60
3198;DHT22;1611;49.394;11.136;2023-02-11T06:54:31;0.20;64.50
3198;DHT22;1611;49.394;11.136;2023-02-11T06:56:58;0.10;64.50
3198;DHT22;1611;49.394;11.136;2023-02-11T06:59:26;0.10;64.70
3198;DHT22;1611;49.394;11.136;2023-02-11T07:01:53;0.00;64.90
3198;DHT22;1611;49.394;11.136;2023-02-11T07:04:20;0.10;65.40
3198;DHT22;1611;49.394;11.136;2023-02-11T07:06:47;0.10;65.40
3198;DHT22;1611;49.394;11.136;2023-02-11T07:09:13;0.10;65.30
3198;DHT22;1611;49.394;11.136;2023-02-11T07:11:40;0.10;65.10
3198;DHT22;1611;49.394;11.136;2023-02-11T07:14:07;0.20;65.00
3198;DHT22;1611;49.394;11.136;2023-02-11T07:16:36;0.10;64.70
3198;DHT22;1611;49.394;11.136;2023-02-11T07:19:03;0.20;64.90
3198;DHT22;1611;49.394;11.136;2023-02-11T07:21:30;0.20;64.70
3198;DHT22;1611;49.394;11.136;2023-02-11T07:23:57;0.20;64.70
3198;DHT22;1611;49.394;11.136;2023-02-11T07:26:24;0.20;64.60
3198;DHT22;1611;49.394;11.136;2023-02-11T07:28:51;0.20;64.50
3198;DHT22;1611;49.394;11.136;2023-02-11T07:31:20;0.20;64.60
3198;DHT22;1611;49.394;11.136;2023-02-11T07:33:50;0.30;65.40
3198;DHT22;1611;49.394;11.136;2023-02-11T07:36:17;0.30;65.40
3198;DHT22;1611;49.394;11.136;2023-02-11T07:38:44;0.40;65.50
3198;DHT22;1611;49.394;11.136;2023-02-11T07:41:13;0.50;65.40
3198;DHT22;1611;49.394;11.136;2023-02-11T07:43:41;0.50;64.80
3198;DHT22;1611;49.394;11.136;2023-02-11T07:46:10;0.70;64.70
3198;DHT22;1611;49.394;11.136;2023-02-11T07:48:37;0.80;64.40
3198;DHT22;1611;49.394;11.136;2023-02-11T07:51:07;1.00;64.40
3198;DHT22;1611;49.394;11.136;2023-02-11T07:53:33;1.20;63.50
3198;DHT22;1611;49.394;11.136;2023-02-11T07:56:01;1.50;63.30
3198;DHT22;1611;49.394;11.136;2023-02-11T07:58:28;1.60;62.40
3198;DHT22;1611;49.394;11.136;2023-02-11T08:00:59;1.70;62.20
3198;DHT22;1611;49.394;11.136;2023-02-11T08:03:26;1.80;62.20
3198;DHT22;1611;49.394;11.136;2023-02-11T08:05:53;1.90;62.00
3198;DHT22;1611;49.394;11.136;2023-02-11T08:08:21;2.00;61.50
3198;DHT22;1611;49.394;11.136;2023-02-11T08:10:48;2.10;60.90
3198;DHT22;1611;49.394;11.136;2023-02-11T08:13:15;2.30;61.00
3198;DHT22;1611;49.394;11.136;2023-02-11T08:15:41;2.60;60.20
3198;DHT22;1611;49.394;11.136;2023-02-11T08:18:08;2.80;59.20
3198;DHT22;1611;49.394;11.136;2023-02-11T08:20:35;2.90;58.90
3198;DHT22;1611;49.394;11.136;2023-02-11T08:23:02;3.20;58.00
3198;DHT22;1611;49.394;11.136;2023-02-11T08:25:30;3.30;57.30
3198;DHT22;1611;49.394;11.136;2023-02-11T08:27:57;3.50;56.40
3198;DHT22;1611;49.394;11.136;2023-02-11T08:30:24;3.50;55.90
3198;DHT22;1611;49.394;11.136;2023-02-11T08:32:51;3.60;55.70
3198;DHT22;1611;49.394;11.136;2023-02-11T08:35:17;3.60;54.90
3198;DHT22;1611;49.394;11.136;2023-02-11T08:37:44;3.70;53.60
3198;DHT22;1611;49.394;11.136;2023-02-11T08:40:11;3.90;53.90
3198;DHT22;1611;49.394;11.136;2023-02-11T08:42:39;4.00;53.20
3198;DHT22;1611;49.394;11.136;2023-02-11T08:45:06;4.00;52.30
3198;DHT22;1611;49.394;11.136;2023-02-11T08:47:34;4.10;52.80
3198;DHT22;1611;49.394;11.136;2023-02-11T08:50:01;4.30;52.40
3198;DHT22;1611;49.394;11.136;2023-02-11T08:52:28;4.40;50.90
3198;DHT22;1611;49.394;11.136;2023-02-11T08:54:55;4.40;50.10
3198;DHT22;1611;49.394;11.136;2023-02-11T08:57:22;4.60;50.20
3198;DHT22;1611;49.394;11.136;2023-02-11T08:59:50;4.70;49.30
3198;DHT22;1611;49.394;11.136;2023-02-11T09:02:17;4.90;49.90
3198;DHT22;1611;49.394;11.136;2023-02-11T09:04:43;4.90;49.30
3198;DHT22;1611;49.394;11.136;2023-02-11T09:07:10;5.10;48.90
3198;DHT22;1611;49.394;11.136;2023-02-11T09:09:38;5.40;47.60
3198;DHT22;1611;49.394;11.136;2023-02-11T09:12:05;5.40;46.60
3198;DHT22;1611;49.394;11.136;2023-02-11T09:14:31;5.50;46.90
3198;DHT22;1611;49.394;11.136;2023-02-11T09:17:00;5.60;45.90
3198;DHT22;1611;49.394;11.136;2023-02-11T09:19:27;5.80;46.00
3198;DHT22;1611;49.394;11.136;2023-02-11T09:21:53;5.80;45.30
3198;DHT22;1611;49.394;11.136;2023-02-11T09:24:20;5.90;45.20
3198;DHT22;1611;49.394;11.136;2023-02-11T09:26:47;6.10;45.00
3198;DHT22;1611;49.394;11.136;2023-02-11T09:29:14;6.00;43.80
3198;DHT22;1611;49.394;11.136;2023-02-11T09:31:41;6.10;43.90
3198;DHT22;1611;49.394;11.136;2023-02-11T09:34:10;6.30;44.40
3198;DHT22;1611;49.394;11.136;2023-02-11T09:36:38;6.50;43.80
3198;DHT22;1611;49.394;11.136;2023-02-11T09:39:07;6.70;43.70
3198;DHT22;1611;49.394;11.136;2023-02-11T09:41:41;6.60;42.90
3198;DHT22;1611;49.394;11.136;2023-02-11T09:44:17;6.80;42.00
3198;DHT22;1611;49.394;11.136;2023-02-11T09:46:47;6.70;41.90
3198;DHT22;1611;49.394;11.136;2023-02-11T09:49:21;6.70;41.90
3198;DHT22;1611;49.394;11.136;2023-02-11T09:51:50;6.60;42.50
3198;DHT22;1611;49.394;11.136;2023-02-11T09:54:24;6.40;42.90
3198;DHT22;1611;49.394;11.136;2023-02-11T09:56:52;6.50;43.00
3198;DHT22;1611;49.394;11.136;2023-02-11T09:59:19;6.60;43.00
3198;DHT22;1611;49.394;11.136;2023-02-11T10:01:49;6.70;42.80
3198;DHT22;1611;49.394;11.136;2023-02-11T10:04:31;6.80;42.40
3198;DHT22;1611;49.394;11.136;2023-02-11T10:07:06;7.10;42.30
3198;DHT22;1611;49.394;11.136;2023-02-11T10:09:51;7.30;42.40
3198;DHT22;1611;49.394;11.136;2023-02-11T10:12:33;7.50;40.60
3198;DHT22;1611;49.394;11.136;2023-02-11T10:15:14;7.50;40.60
3198;DHT22;1611;49.394;11.136;2023-02-11T10:17:54;7.60;41.20
3198;DHT22;1611;49.394;11.136;2023-02-11T10:20:31;8.30;39.80
3198;DHT22;1611;49.394;11.136;2023-02-11T10:23:06;9.00;36.90
3198;DHT22;1611;49.394;11.136;2023-02-11T10:25:36;9.60;34.40
3198;DHT22;1611;49.394;11.136;2023-02-11T10:28:10;9.60;33.60
3198;DHT22;1611;49.394;11.136;2023-02-11T10:30:41;9.60;34.70
3198;DHT22;1611;49.394;11.136;2023-02-11T10:33:14;9.70;34.70
3198;DHT22;1611;49.394;11.136;2023-02-11T10:35:43;9.70;34.60
3198;DHT22;1611;49.394;11.136;2023-02-11T10:38:10;9.80;34.60
3198;DHT22;1611;49.394;11.136;2023-02-11T10:40:37;9.90;34.60
3198;DHT22;1611;49.394;11.136;2023-02-11T10:43:09;9.90;34.30
3198;DHT22;1611;49.394;11.136;2023-02-11T10:45:38;9.80;34.80
3198;DHT22;1611;49.394;11.136;2023-02-11T10:48:36;9.30;35.40
3198;DHT22;1611;49.394;11.136;2023-02-11T10:51:20;9.30;36.70
3198;DHT22;1611;49.394;11.136;2023-02-11T10:53:48;9.10;36.90
3198;DHT22;1611;49.394;11.136;2023-02-11T10:56:21;9.10;37.20
3198;DHT22;1611;49.394;11.136;2023-02-11T10:58:55;9.10;37.30
3198;DHT22;1611;49.394;11.136;2023-02-11T11:01:37;8.90;37.10
3198;DHT22;1611;49.394;11.136;2023-02-11T11:04:05;9.00;38.10
3198;DHT22;1611;49.394;11.136;2023-02-11T11:06:34;9.00;37.80
3198;DHT22;1611;49.394;11.136;2023-02-11T11:09:01;9.20;37.70
3198;DHT22;1611;49.394;11.136;2023-02-11T11:11:29;9.10;37.50
3198;DHT22;1611;49.394;11.136;2023-02-11T11:13:57;9.10;37.80
3198;DHT22;1611;49.394;11.136;2023-02-11T11:16:26;9.20;38.30
3198;DHT22;1611;49.394;11.136;2023-02-11T11:19:14;9.20;38.10
3198;DHT22;1611;49.394;11.136;2023-02-11T11:21:44;9.30;38.40
3198;DHT22;1611;49.394;11.136;2023-02-11T11:24:16;9.00;38.60
3198;DHT22;1611;49.394;11.136;2023-02-11T11:26:45;8.80;39.00
3198;DHT22;1611;49.394;11.136;2023-02-11T11:29:15;8.70;39.50
3198;DHT22;1611;49.394;11.136;2023-02-11T11:31:48;8.60;39.40
3198;DHT22;1611;49.394;11.136;2023-02-11T11:34:22;8.60;39.70
3198;DHT22;1611;49.394;11.136;2023-02-11T11:36:50;8.30;39.80
3198;DHT22;1611;49.394;11.136;2023-02-11T11:39:22;8.30;41.10
3198;DHT22;1611;49.394;11.136;2023-02-11T11:41:53;8.10;41.40
3198;DHT22;1611;49.394;11.136;2023-02-11T11:44:24;8.10;41.80
3198;DHT22;1611;49.394;11.136;2023-02-11T11:47:14;8.20;41.80
3198;DHT22;1611;49.394;11.136;2023-02-11T11:49:48;8.30;41.50
3198;DHT22;1611;49.394;11.136;2023-02-11T11:52:23;8.30;41.50
3198;DHT22;1611;49.394;11.136;2023-02-11T11:54:56;8.30;42.00
3198;DHT22;1611;49.394;11.136;2023-02-11T11:57:26;8.40;41.50
3198;DHT22;1611;49.394;11.136;2023-02-11T11:59:55;8.50;41.20
3198;DHT22;1611;49.394;11.136;2023-02-11T12:02:50;8.60;41.00
3198;DHT22;1611;49.394;11.136;2023-02-11T12:05:25;8.70;40.90
3198;DHT22;1611;49.394;11.136;2023-02-11T12:08:07;8.70;40.90
3198;DHT22;1611;49.394;11.136;2023-02-11T12:10:43;8.80;41.30
3198;DHT22;1611;49.394;11.136;2023-02-11T12:13:23;8.80;40.80
3198;DHT22;1611;49.394;11.136;2023-02-11T12:15:58;8.80;40.80
3198;DHT22;1611;49.394;11.136;2023-02-11T12:18:38;8.90;40.90
3198;DHT22;1611;49.394;11.136;2023-02-11T12:21:18;8.90;40.70
3198;DHT22;1611;49.394;11.136;2023-02-11T12:24:03;8.90;40.60
3198;DHT22;1611;49.394;11.136;2023-02-11T12:26:37;8.90;40.20
3198;DHT22;1611;49.394;11.136;2023-02-11T12:29:15;9.00;40.40
3198;DHT22;1611;49.394;11.136;2023-02-11T12:31:57;9.10;39.80
3198;DHT22;1611;49.394;11.136;2023-02-11T12:34:58;9.10;40.20
3198;DHT22;1611;49.394;11.136;2023-02-11T12:37:40;9.20;39.90
3198;DHT22;1611;49.394;11.136;2023-02-11T12:40:15;9.10;40.10
3198;DHT22;1611;49.394;11.136;2023-02-11T12:42:54;9.00;39.60
3198;DHT22;1611;49.394;11.136;2023-02-11T12:45:53;8.80;40.00
3198;DHT22;1611;49.394;11.136;2023-02-11T12:51:21;8.60;41.30
3198;DHT22;1611;49.394;11.136;2023-02-11T12:54:14;8.50;41.90
3198;DHT22;1611;49.394;11.136;2023-02-11T12:56:48;8.60;41.30
3198;DHT22;1611;49.394;11.136;2023-02-11T12:59:21;8.60;40.90
3198;DHT22;1611;49.394;11.136;2023-02-11T13:01:55;8.60;40.60
3198;DHT22;1611;49.394;11.136;2023-02-11T13:04:27;8.60;40.70
3198;DHT22;1611;49.394;11.136;2023-02-11T13:06:58;8.60;40.90
3198;DHT22;1611;49.394;11.136;2023-02-11T13:09:31;8.70;40.20
3198;DHT22;1611;49.394;11.136;2023-02-11T13:12:03;8.60;39.80
3198;DHT22;1611;49.394;11.136;2023-02-11T13:14:55;8.70;40.40
3198;DHT22;1611;49.394;11.136;2023-02-11T13:17:28;8.70;39.50
3198;DHT22;1611;49.394;11.136;2023-02-11T13:19:59;8.80;39.30
3198;DHT22;1611;49.394;11.136;2023-02-11T13:22:33;8.70;39.10
3198;DHT22;1611;49.394;11.136;2023-02-11T13:25:04;8.80;39.60
3198;DHT22;1611;49.394;11.136;2023-02-11T13:27:37;8.90;38.50
3198;DHT22;1611;49.394;11.136;2023-02-11T13:30:21;8.90;38.50
3198;DHT22;1611;49.394;11.136;2023-02-11T13:33:16;9.00;37.70
3198;DHT22;1611;49.394;11.136;2023-02-11T13:35:48;9.00;37.50
3198;DHT22;1611;49.394;11.136;2023-02-11T13:38:35;8.90;37.70
3198;DHT22;1611;49.394;11.136;2023-02-11T13:41:04;8.90;37.70
3198;DHT22;1611;49.394;11.136;2023-02-11T13:43:34;8.90;37.80
3198;DHT22;1611;49.394;11.136;2023-02-11T13:46:04;8.70;38.10
3198;DHT22;1611;49.394;11.136;2023-02-11T13:48:33;8.70;38.20
3198;DHT22;1611;49.394;11.136;2023-02-11T13:51:04;8.60;38.60
3198;DHT22;1611;49.394;11.136;2023-02-11T13:53:44;8.50;38.40
3198;DHT22;1611;49.394;11.136;2023-02-11T13:56:23;8.40;39.30
3198;DHT22;1611;49.394;11.136;2023-02-11T13:58:54;8.40;38.60
3198;DHT22;1611;49.394;11.136;2023-02-11T14:01:40;8.20;39.00
3198;DHT22;1611;49.394;11.136;2023-02-11T14:04:21;8.10;39.60
3198;DHT22;1611;49.394;11.136;2023-02-11T14:07:25;8.20;39.70
3198;DHT22;1611;49.394;11.136;2023-02-11T14:13:21;8.30;39.70
3198;DHT22;1611;49.394;11.136;2023-02-11T14:16:03;8.40;41.20
3198;DHT22;1611;49.394;11.136;2023-02-11T14:18:58;8.40;41.90
3198;DHT22;1611;49.394;11.136;2023-02-11T14:21:32;8.60;42.40
3198;DHT22;1611;49.394;11.136;2023-02-11T14:27:06;8.90;41.90
3198;DHT22;1611;49.394;11.136;2023-02-11T14:29:41;8.80;42.30
3198;DHT22;1611;49.394;11.136;2023-02-11T14:32:17;8.50;44.50
3198;DHT22;1611;49.394;11.136;2023-02-11T14:34:54;8.40;44.90
3198;DHT22;1611;49.394;11.136;2023-02-11T14:37:32;8.20;45.90
3198;DHT22;1611;49.394;11.136;2023-02-11T14:40:12;8.10;46.50
3198;DHT22;1611;49.394;11.136;2023-02-11T14:42:42;8.10;47.00
3198;DHT22;1611;49.394;11.136;2023-02-11T14:45:13;8.00;47.70
3198;DHT22;1611;49.394;11.136;2023-02-11T14:47:46;7.90;47.60
3198;DHT22;1611;49.394;11.136;2023-02-11T14:50:21;7.90;48.00
3198;DHT22;1611;49.394;11.136;2023-02-11T14:52:50;7.80;49.00
3198;DHT22;1611;49.394;11.136;2023-02-11T14:55:28;7.90;49.70
3198;DHT22;1611;49.394;11.136;2023-02-11T14:58:07;7.80;49.40
3198;DHT22;1611;49.394;11.136;2023-02-11T15:00:49;7.80;49.30
3198;DHT22;1611;49.394;11.136;2023-02-11T15:03:32;7.60;49.60
3198;DHT22;1611;49.394;11.136;2023-02-11T15:06:01;7.50;50.30
3198;DHT22;1611;49.394;11.136;2023-02-11T15:08:29;7.40;50.30
3198;DHT22;1611;49.394;11.136;2023-02-11T15:10:57;7.40;50.80
3198;DHT22;1611;49.394;11.136;2023-02-11T15:13:28;7.30;51.90
3198;DHT22;1611;49.394;11.136;2023-02-11T15:15:59;7.30;52.40
3198;DHT22;1611;49.394;11.136;2023-02-11T15:18:33;7.20;52.60
3198;DHT22;1611;49.394;11.136;2023-02-11T15:21:00;7.10;52.60
3198;DHT22;1611;49.394;11.136;2023-02-11T15:23:28;7.10;52.60
3198;DHT22;1611;49.394;11.136;2023-02-11T15:25:56;7.20;53.70
3198;DHT22;1611;49.394;11.136;2023-02-11T15:28:29;7.20;52.70
3198;DHT22;1611;49.394;11.136;2023-02-11T15:31:01;7.10;52.70
3198;DHT22;1611;49.394;11.136;2023-02-11T15:33:30;7.10;52.60
3198;DHT22;1611;49.394;11.136;2023-02-11T15:35:58;7.10;52.40
3198;DHT22;1611;49.394;11.136;2023-02-11T15:38:25;7.10;52.40
3198;DHT22;1611;49.394;11.136;2023-02-11T15:40:55;7.10;52.40
3198;DHT22;1611;49.394;11.136;2023-02-11T15:43:23;7.10;52.20
3198;DHT22;1611;49.394;11.136;2023-02-11T15:45:57;7.10;51.80
3198;DHT22;1611;49.394;11.136;2023-02-11T15:48:33;7.10;51.70
3198;DHT22;1611;49.394;11.136;2023-02-11T15:51:04;7.00;52.00
3198;DHT22;1611;49.394;11.136;2023-02-11T15:53:36;6.90;52.50
3198;DHT22;1611;49.394;11.136;2023-02-11T15:56:10;6.80;52.60
3198;DHT22;1611;49.394;11.136;2023-02-11T15:58:38;7.00;52.70
3198;DHT22;1611;49.394;11.136;2023-02-11T16:01:06;6.90;52.50
3198;DHT22;1611;49.394;11.136;2023-02-11T16:03:35;6.80;52.50
3198;DHT22;1611;49.394;11.136;2023-02-11T16:06:16;6.80;52.60
3198;DHT22;1611;49.394;11.136;2023-02-11T16:08:55;6.80;53.20
3198;DHT22;1611;49.394;11.136;2023-02-11T16:11:25;6.60;53.50
3198;DHT22;1611;49.394;11.136;2023-02-11T16:13:54;6.50;53.80
3198;DHT22;1611;49.394;11.136;2023-02-11T16:16:23;6.50;54.10
3198;DHT22;1611;49.394;11.136;2023-02-11T16:18:52;6.50;54.40
3198;DHT22;1611;49.394;11.136;2023-02-11T16:21:23;6.50;54.20
3198;DHT22;1611;49.394;11.136;2023-02-11T16:23:55;6.50;54.30
3198;DHT22;1611;49.394;11.136;2023-02-11T16:26:26;6.40;54.00
3198;DHT22;1611;49.394;11.136;2023-02-11T16:29:02;6.40;54.10
3198;DHT22;1611;49.394;11.136;2023-02-11T16:31:32;6.50;54.30
3198;DHT22;1611;49.394;11.136;2023-02-11T16:34:00;6.40;54.10